Terminal Aerodrome Forecast
Issued by NWS

Home | Current Version | Previous Version | Text Only | Print | Product List | Glossary On
Versions: 1 2 3 4 5 6 7 8 9 10 11 12 13 14 15 16 17 18 19 20 21 22 23 24 25 26 27 28 29 30 31
000
FTUS41 KBUF 271100
TAFJHW
TAF
KJHW 271135Z 2712/2812 24005KT 2SM BR OVC003
     FM271300 28005KT P6SM BKN007
     FM271400 29005KT P6SM BKN012
     FM271700 32006KT P6SM BKN025
     FM272200 30007KT P6SM SCT110
     FM280500 33008KT P6SM FEW250
     FM280900 33006KT P6SM SCT040
     FM281100 32006KT P6SM BKN020
      AMD LTD TO CLD VIS AND WIND=

USA.gov is the U.S. government's official web portal to all federal, state and local government web resources and services.